createdAt,value
2018-10-18T00:00:13.474Z,7.70
2018-10-18T00:02:42.995Z,7.85
2018-10-18T00:05:13.242Z,18.00
2018-10-18T00:07:42.375Z,7.50
2018-10-18T00:10:12.481Z,7.20
2018-10-18T00:12:41.599Z,8.40
2018-10-18T00:15:11.132Z,10.35
2018-10-18T00:17:46.572Z,7.43
2018-10-18T00:20:17.205Z,7.67
2018-10-18T00:22:46.708Z,10.60
2018-10-18T00:25:16.225Z,10.20
2018-10-18T00:27:46.068Z,8.60
2018-10-18T00:30:15.886Z,9.33
2018-10-18T00:32:45.156Z,6.87
2018-10-18T00:35:14.278Z,7.60
2018-10-18T00:37:44.087Z,7.07
2018-10-18T00:40:13.291Z,6.93
2018-10-18T00:42:43.139Z,6.50
2018-10-18T00:45:12.532Z,7.78
2018-10-18T00:47:41.882Z,7.60
2018-10-18T00:50:11.885Z,6.60
2018-10-18T00:52:41.090Z,7.13
2018-10-18T00:55:11.620Z,6.87
2018-10-18T00:57:41.397Z,8.13
2018-10-18T01:00:11.588Z,7.43
2018-10-18T01:02:40.582Z,7.03
2018-10-18T01:05:09.707Z,7.63
2018-10-18T01:07:38.840Z,10.10
2018-10-18T01:10:07.961Z,7.90
2018-10-18T01:12:37.095Z,6.93
2018-10-18T01:15:06.283Z,8.30
2018-10-18T01:17:35.436Z,6.70
2018-10-18T01:20:05.275Z,7.10
2018-10-18T01:22:34.391Z,6.35
2018-10-18T01:25:03.838Z,7.10
2018-10-18T01:27:33.202Z,6.30
2018-10-18T01:30:02.344Z,6.50
2018-10-18T01:32:31.433Z,6.80
2018-10-18T01:35:00.600Z,6.80
2018-10-18T01:37:29.705Z,7.57
2018-10-18T01:39:59.116Z,8.33
2018-10-18T01:42:28.241Z,6.00
2018-10-18T01:44:58.376Z,6.50
2018-10-18T01:47:27.510Z,6.23
2018-10-18T01:49:56.694Z,6.35
2018-10-18T01:52:25.892Z,6.50
2018-10-18T01:54:55.741Z,7.10
2018-10-18T01:57:25.169Z,9.60
2018-10-18T01:59:54.633Z,7.17
2018-10-18T02:02:23.983Z,6.27
2018-10-18T02:04:53.323Z,6.20
2018-10-18T02:07:22.684Z,6.73
2018-10-18T02:09:52.013Z,7.53
2018-10-18T02:12:21.375Z,7.20
2018-10-18T02:14:50.717Z,6.87
2018-10-18T02:17:19.849Z,8.88
2018-10-18T02:19:49.210Z,6.57
2018-10-18T02:22:18.789Z,6.77
2018-10-18T02:24:48.120Z,7.03
2018-10-18T02:27:17.649Z,6.70
2018-10-18T02:29:46.781Z,5.87
2018-10-18T02:32:16.248Z,5.90
2018-10-18T02:34:45.376Z,5.87
2018-10-18T02:37:14.508Z,6.27
2018-10-18T02:39:43.680Z,6.10
2018-10-18T02:42:12.882Z,6.70
2018-10-18T02:44:42.336Z,6.03
2018-10-18T02:47:12.327Z,5.83
2018-10-18T02:49:41.464Z,5.70
2018-10-18T02:52:10.576Z,6.73
2018-10-18T02:54:39.725Z,6.43
2018-10-18T02:57:08.864Z,6.40
2018-10-18T02:59:38.333Z,8.00
2018-10-18T03:02:08.087Z,7.63
2018-10-18T03:04:37.199Z,8.10
2018-10-18T03:07:06.698Z,5.60
2018-10-18T03:09:35.815Z,6.10
2018-10-18T03:12:05.142Z,9.10
2018-10-18T03:14:34.365Z,5.65
2018-10-18T03:17:03.501Z,6.10
2018-10-18T03:19:32.884Z,6.10
2018-10-18T03:22:02.238Z,6.10
2018-10-18T03:24:31.632Z,5.17
2018-10-18T03:27:00.981Z,4.97
2018-10-18T03:29:30.114Z,7.47
2018-10-18T03:31:59.461Z,5.57
2018-10-18T03:34:28.811Z,5.00
2018-10-18T03:36:58.177Z,6.13
2018-10-18T03:39:27.523Z,6.17
2018-10-18T03:41:56.684Z,5.40
2018-10-18T03:44:26.388Z,6.60
2018-10-18T03:46:55.699Z,7.30
2018-10-18T03:49:24.829Z,5.77
2018-10-18T03:51:53.951Z,5.97
2018-10-18T03:54:23.078Z,5.67
2018-10-18T03:56:52.464Z,5.33
2018-10-18T03:59:21.726Z,5.40
2018-10-18T04:01:51.421Z,5.10
2018-10-18T04:04:20.544Z,5.03
2018-10-18T04:06:49.672Z,5.07
2018-10-18T04:09:18.839Z,5.30
2018-10-18T04:11:48.064Z,4.10
2018-10-18T04:14:17.438Z,5.07
2018-10-18T04:16:46.772Z,5.47
2018-10-18T04:19:15.872Z,5.23
2018-10-18T04:21:45.215Z,5.07
2018-10-18T04:24:14.885Z,5.67
2018-10-18T04:26:44.879Z,4.70
2018-10-18T04:29:13.981Z,5.23
2018-10-18T04:31:43.621Z,4.37
2018-10-18T04:34:12.746Z,5.50
2018-10-18T04:36:42.205Z,5.83
2018-10-18T04:39:12.962Z,5.50
2018-10-18T04:41:42.263Z,8.30
2018-10-18T04:44:11.392Z,5.77
2018-10-18T04:46:41.255Z,5.27
2018-10-18T04:49:10.544Z,5.90
2018-10-18T04:51:39.898Z,4.83
2018-10-18T04:54:09.236Z,4.60
2018-10-18T04:56:38.782Z,4.37
2018-10-18T04:59:08.114Z,5.67
2018-10-18T05:01:37.464Z,4.47
2018-10-18T05:04:06.830Z,4.93
2018-10-18T05:06:36.167Z,4.37
2018-10-18T05:09:06.408Z,4.30
2018-10-18T05:11:35.529Z,5.15
2018-10-18T05:14:05.016Z,4.67
2018-10-18T05:16:34.149Z,4.53
2018-10-18T05:19:03.312Z,5.90
2018-10-18T05:21:32.387Z,4.40
2018-10-18T05:24:01.980Z,4.93
2018-10-18T05:26:31.353Z,5.27
2018-10-18T05:29:00.703Z,4.23
2018-10-18T05:31:30.733Z,4.33
2018-10-18T05:34:00.022Z,8.33
2018-10-18T05:36:29.165Z,5.27
2018-10-18T05:38:58.514Z,5.53
2018-10-18T05:41:27.843Z,5.17
2018-10-18T05:43:56.964Z,5.40
2018-10-18T05:46:26.341Z,5.63
2018-10-18T05:48:56.247Z,4.80
2018-10-18T05:51:25.932Z,4.78
2018-10-18T05:53:55.190Z,5.37
2018-10-18T05:56:24.175Z,4.80
2018-10-18T05:58:53.605Z,40.50
2018-10-18T06:01:23.180Z,21.77
2018-10-18T06:03:52.529Z,33.47
2018-10-18T06:06:21.896Z,28.50
2018-10-18T06:08:51.461Z,11.30
2018-10-18T06:11:26.621Z,13.22
2018-10-18T06:13:55.732Z,9.97
2018-10-18T06:16:25.843Z,15.17
2018-10-18T06:18:55.182Z,9.63
2018-10-18T06:21:24.734Z,7.43
2018-10-18T06:23:53.867Z,8.60
2018-10-18T06:26:23.219Z,7.70
2018-10-18T06:28:52.834Z,6.97
2018-10-18T06:31:22.391Z,7.37
2018-10-18T06:33:51.749Z,12.83
2018-10-18T06:36:20.916Z,6.43
2018-10-18T06:38:50.022Z,7.93
2018-10-18T06:41:19.202Z,8.30
2018-10-18T06:43:48.849Z,8.40
2018-10-18T06:46:18.004Z,14.50
2018-10-18T06:48:47.127Z,75.67
2018-10-18T06:51:16.756Z,38.45
2018-10-18T06:53:46.532Z,54.23
2018-10-18T06:56:15.931Z,42.37
2018-10-18T06:58:45.266Z,55.30
2018-10-18T07:01:14.385Z,33.33
2018-10-18T07:03:43.520Z,30.97
2018-10-18T07:06:13.010Z,37.00
2018-10-18T07:08:42.111Z,34.90
2018-10-18T07:11:11.236Z,31.33
2018-10-18T07:13:40.599Z,35.60
2018-10-18T07:16:09.950Z,37.57
2018-10-18T07:18:39.404Z,28.77
2018-10-18T07:21:08.528Z,34.40
2018-10-18T07:23:38.377Z,35.70
2018-10-18T07:26:07.604Z,33.00
2018-10-18T07:28:36.729Z,47.40
2018-10-18T07:31:06.096Z,37.67
2018-10-18T07:33:35.458Z,28.97
2018-10-18T07:36:04.635Z,29.63
2018-10-18T07:38:33.757Z,51.63
2018-10-18T07:41:02.932Z,24.10
2018-10-18T07:43:32.033Z,40.10
2018-10-18T07:46:01.160Z,25.13
2018-10-18T07:48:30.587Z,20.30
2018-10-18T07:50:59.918Z,24.83
2018-10-18T07:53:29.132Z,19.03
2018-10-18T07:55:58.549Z,21.53
2018-10-18T07:58:27.714Z,18.10
2018-10-18T08:00:57.487Z,18.82
2018-10-18T08:03:26.557Z,10.07
2018-10-18T08:05:55.676Z,13.87
2018-10-18T08:08:24.792Z,18.53
2018-10-18T08:10:53.951Z,11.93
2018-10-18T08:13:23.651Z,6.77
2018-10-18T08:15:52.785Z,11.90
2018-10-18T08:18:22.131Z,8.43
2018-10-18T08:20:51.478Z,9.20
2018-10-18T08:23:20.592Z,12.50
2018-10-18T08:25:49.728Z,14.27
2018-10-18T08:28:18.847Z,9.10
2018-10-18T08:30:51.132Z,9.43
2018-10-18T08:33:20.741Z,5.53
2018-10-18T08:35:49.865Z,11.93
2018-10-18T08:38:20.631Z,8.53
2018-10-18T08:40:50.485Z,12.17
2018-10-18T08:43:21.316Z,20.47
2018-10-18T08:45:51.116Z,15.18
2018-10-18T08:48:20.457Z,6.10
2018-10-18T08:50:49.562Z,7.50
2018-10-18T08:53:19.223Z,6.50
2018-10-18T08:55:48.603Z,11.80
2018-10-18T08:58:17.928Z,5.87
2018-10-18T09:00:47.980Z,16.03
2018-10-18T09:03:17.638Z,4.37
2018-10-18T09:05:46.757Z,2.40
2018-10-18T09:08:16.112Z,6.23
2018-10-18T09:10:45.538Z,12.13
2018-10-18T09:13:14.992Z,4.87
2018-10-18T09:15:44.226Z,9.95
2018-10-18T09:18:13.338Z,5.90
2018-10-18T09:20:42.463Z,6.20
2018-10-18T09:23:11.825Z,4.67
2018-10-18T09:25:41.180Z,10.18
2018-10-18T09:28:10.546Z,4.80
2018-10-18T09:30:39.886Z,20.03
2018-10-18T09:33:08.997Z,8.80
2018-10-18T09:35:38.128Z,11.40
2018-10-18T09:38:07.475Z,8.13
2018-10-18T09:40:36.593Z,5.47
2018-10-18T09:43:05.740Z,5.00
2018-10-18T09:45:34.834Z,12.67
2018-10-18T09:48:03.954Z,4.57
2018-10-18T09:50:33.085Z,11.53
2018-10-18T09:53:02.306Z,12.07
2018-10-18T09:55:31.450Z,7.15
2018-10-18T09:58:00.501Z,7.77
2018-10-18T10:00:35.020Z,7.10
2018-10-18T10:03:11.880Z,8.03
2018-10-18T10:05:41.458Z,6.73
2018-10-18T10:08:11.041Z,8.47
2018-10-18T10:10:40.161Z,6.50
2018-10-18T10:13:09.675Z,7.00
2018-10-18T10:15:38.967Z,4.50
2018-10-18T10:18:08.356Z,5.63
2018-10-18T10:20:38.028Z,6.50
2018-10-18T10:23:07.273Z,3.73
2018-10-18T10:25:36.397Z,8.33
2018-10-18T10:28:05.512Z,5.70
2018-10-18T10:30:34.645Z,2.17
2018-10-18T10:33:04.089Z,3.10
2018-10-18T10:35:33.364Z,3.92
2018-10-18T10:38:02.436Z,6.83
2018-10-18T10:40:32.308Z,3.60
2018-10-18T10:43:01.443Z,11.63
2018-10-18T10:45:30.541Z,3.83
2018-10-18T10:47:59.998Z,4.17
2018-10-18T10:50:29.840Z,6.40
2018-10-18T10:52:58.961Z,5.30
2018-10-18T10:55:28.070Z,4.03
2018-10-18T10:57:57.213Z,3.43
2018-10-18T11:00:31.875Z,4.53
2018-10-18T11:03:01.023Z,2.07
2018-10-18T11:05:30.329Z,7.13
2018-10-18T11:07:59.693Z,3.77
2018-10-18T11:10:29.000Z,3.43
2018-10-18T11:12:58.386Z,2.53
2018-10-18T11:15:27.959Z,5.67
2018-10-18T11:17:57.317Z,5.47
2018-10-18T11:20:26.907Z,3.50
2018-10-18T11:22:56.285Z,5.83
2018-10-18T11:25:25.504Z,1.63
2018-10-18T11:27:54.653Z,4.50
2018-10-18T11:30:23.881Z,8.00
2018-10-18T11:32:53.362Z,4.37
2018-10-18T11:35:22.460Z,3.30
2018-10-18T11:37:51.572Z,4.03
2018-10-18T11:40:20.737Z,3.03
2018-10-18T11:42:49.904Z,1.60
2018-10-18T11:45:19.055Z,1.93
2018-10-18T11:47:48.127Z,4.63
2018-10-18T11:50:17.252Z,2.33
2018-10-18T11:52:46.385Z,7.50
2018-10-18T11:55:15.472Z,3.93
2018-10-18T11:57:44.577Z,7.40
2018-10-18T12:00:17.560Z,2.27
2018-10-18T12:02:47.564Z,2.50
2018-10-18T12:05:17.459Z,3.87
2018-10-18T12:07:46.520Z,5.83
2018-10-18T12:10:15.620Z,3.73
2018-10-18T12:12:44.701Z,3.30
2018-10-18T12:15:14.055Z,2.53
2018-10-18T12:17:43.433Z,6.43
2018-10-18T12:20:13.867Z,1.73
2018-10-18T12:22:42.892Z,2.27
2018-10-18T12:25:12.858Z,2.50
2018-10-18T12:27:43.080Z,1.80
2018-10-18T12:30:13.444Z,4.27
2018-10-18T12:32:42.798Z,6.10
2018-10-18T12:35:12.214Z,1.93
2018-10-18T12:37:41.217Z,1.67
2018-10-18T12:40:10.584Z,1.60
2018-10-18T12:42:41.773Z,2.70
2018-10-18T12:45:11.886Z,2.10
2018-10-18T12:47:41.293Z,3.60
2018-10-18T12:50:11.008Z,7.93
2018-10-18T12:52:40.015Z,3.70
2018-10-18T12:55:09.110Z,2.53
2018-10-18T12:57:38.460Z,4.40
2018-10-18T13:00:09.616Z,6.70
2018-10-18T13:02:39.158Z,8.03
2018-10-18T13:05:09.653Z,9.00
2018-10-18T13:07:39.089Z,8.67
2018-10-18T13:10:09.615Z,6.87
2018-10-18T13:12:38.972Z,10.90
2018-10-18T13:15:09.618Z,5.23
2018-10-18T13:17:39.350Z,11.75
2018-10-18T13:20:09.221Z,7.00
2018-10-18T13:22:38.756Z,12.37
2018-10-18T13:25:09.165Z,21.73
2018-10-18T13:27:38.711Z,9.15
2018-10-18T13:30:09.039Z,11.93
2018-10-18T13:32:38.545Z,7.17
2018-10-18T13:35:08.157Z,8.08
2018-10-18T13:37:37.289Z,11.40
2018-10-18T13:40:06.745Z,7.63
2018-10-18T13:42:36.089Z,3.17
2018-10-18T13:45:05.967Z,3.10
2018-10-18T13:47:35.589Z,8.57
2018-10-18T13:50:05.569Z,8.05
2018-10-18T13:52:35.083Z,13.30
2018-10-18T13:55:04.487Z,3.27
2018-10-18T13:57:33.581Z,3.33
2018-10-18T14:00:22.787Z,12.20
2018-10-18T14:02:52.882Z,8.60
2018-10-18T14:05:22.205Z,4.73
2018-10-18T14:07:52.528Z,7.30
2018-10-18T14:10:21.802Z,5.70
2018-10-18T14:12:51.630Z,11.70
2018-10-18T14:15:20.719Z,6.27
2018-10-18T14:17:50.213Z,7.90
2018-10-18T14:20:19.323Z,3.90
2018-10-18T14:22:48.336Z,9.47
2018-10-18T14:25:17.432Z,6.83
2018-10-18T14:27:46.808Z,7.70
2018-10-18T14:30:16.251Z,9.80
2018-10-18T14:32:45.524Z,7.00
2018-10-18T14:35:14.972Z,9.17
2018-10-18T14:37:44.309Z,8.63
2018-10-18T14:40:13.526Z,15.70
2018-10-18T14:42:42.620Z,13.63
2018-10-18T14:45:11.843Z,17.77
2018-10-18T14:47:40.941Z,5.30
2018-10-18T14:50:12.860Z,16.43
2018-10-18T14:52:42.278Z,9.70
2018-10-18T14:55:11.390Z,4.03
2018-10-18T14:57:41.379Z,9.20
2018-10-18T15:00:12.508Z,5.97
2018-10-18T15:02:42.246Z,5.97
2018-10-18T15:05:12.555Z,13.50
2018-10-18T15:07:42.071Z,6.73
2018-10-18T15:10:13.208Z,5.70
2018-10-18T15:12:42.929Z,4.47
2018-10-18T15:15:13.336Z,3.83
2018-10-18T15:17:42.669Z,3.90
2018-10-18T15:20:12.836Z,6.73
2018-10-18T15:22:43.075Z,4.87
2018-10-18T15:25:13.321Z,15.03
2018-10-18T15:27:43.130Z,4.50
2018-10-18T15:30:13.024Z,7.57
2018-10-18T15:32:44.487Z,5.20
2018-10-18T15:35:13.623Z,5.62
2018-10-18T15:37:42.699Z,6.47
2018-10-18T15:40:12.041Z,4.60
2018-10-18T15:42:41.776Z,3.60
2018-10-18T15:45:11.117Z,3.90
2018-10-18T15:47:40.278Z,5.03
2018-10-18T15:50:10.207Z,4.03
2018-10-18T15:52:39.626Z,5.37
2018-10-18T15:55:09.233Z,7.60
2018-10-18T15:57:39.165Z,6.40
2018-10-18T16:00:08.751Z,2.83
2018-10-18T16:02:38.079Z,7.60
2018-10-18T16:05:07.418Z,7.90
2018-10-18T16:07:36.941Z,4.87
2018-10-18T16:10:06.600Z,2.07
2018-10-18T16:12:35.857Z,3.20
2018-10-18T16:15:05.785Z,5.77
2018-10-18T16:17:36.019Z,4.50
2018-10-18T16:20:06.250Z,5.43
2018-10-18T16:22:35.554Z,4.25
2018-10-18T16:25:06.437Z,4.27
2018-10-18T16:27:35.802Z,6.87
2018-10-18T16:30:05.353Z,7.53
2018-10-18T16:32:34.599Z,3.30
2018-10-18T16:35:04.752Z,5.67
2018-10-18T16:37:33.964Z,5.80
2018-10-18T16:40:03.087Z,4.90
2018-10-18T16:42:32.308Z,6.45
2018-10-18T16:45:01.754Z,6.27
2018-10-18T16:47:30.971Z,4.33
2018-10-18T16:50:00.672Z,6.47
2018-10-18T16:52:30.344Z,5.60
2018-10-18T16:54:59.701Z,4.60
2018-10-18T16:57:28.828Z,3.10
2018-10-18T16:59:58.185Z,2.37
2018-10-18T17:02:27.475Z,2.13
2018-10-18T17:04:56.841Z,4.40
2018-10-18T17:07:27.540Z,10.13
2018-10-18T17:09:57.691Z,1.80
2018-10-18T17:12:27.210Z,6.67
2018-10-18T17:14:56.535Z,2.40
2018-10-18T17:17:25.626Z,2.27
2018-10-18T17:19:54.721Z,4.67
2018-10-18T17:22:24.078Z,2.77
2018-10-18T17:24:53.163Z,3.27
2018-10-18T17:27:22.641Z,10.13
2018-10-18T17:29:52.326Z,4.60
2018-10-18T17:32:21.686Z,10.88
2018-10-18T17:34:50.715Z,5.90
2018-10-18T17:37:19.836Z,6.17
2018-10-18T17:39:49.165Z,7.33
2018-10-18T17:42:18.755Z,3.93
2018-10-18T17:44:48.026Z,4.60
2018-10-18T17:47:17.434Z,3.07
2018-10-18T17:49:47.299Z,7.40
2018-10-18T17:52:16.577Z,2.03
2018-10-18T17:54:45.774Z,1.87
2018-10-18T17:57:15.070Z,4.55
2018-10-18T17:59:44.554Z,5.97
2018-10-18T18:02:14.495Z,5.93
2018-10-18T18:04:44.345Z,5.00
2018-10-18T18:07:13.651Z,2.40
2018-10-18T18:09:43.001Z,4.25
2018-10-18T18:12:12.569Z,2.70
2018-10-18T18:14:41.872Z,4.37
2018-10-18T18:17:11.522Z,3.33
2018-10-18T18:19:41.072Z,2.85
2018-10-18T18:22:10.408Z,5.33
2018-10-18T18:24:39.715Z,2.50
2018-10-18T18:27:09.278Z,3.17
2018-10-18T18:29:38.568Z,2.53
2018-10-18T18:32:07.912Z,2.72
2018-10-18T18:34:37.650Z,4.10
2018-10-18T18:37:06.745Z,4.90
2018-10-18T18:39:37.288Z,4.07
2018-10-18T18:42:06.627Z,5.23
2018-10-18T18:44:36.703Z,4.17
2018-10-18T18:47:06.287Z,4.40
2018-10-18T18:49:35.609Z,1.43
2018-10-18T18:52:04.983Z,1.70
2018-10-18T18:54:34.298Z,1.70
2018-10-18T18:57:03.694Z,4.57
2018-10-18T18:59:33.189Z,1.95
2018-10-18T19:02:02.512Z,1.90
2018-10-18T19:04:32.357Z,2.20
2018-10-18T19:07:01.718Z,1.50
2018-10-18T19:09:31.026Z,1.63
2018-10-18T19:12:00.418Z,1.70
2018-10-18T19:14:30.116Z,2.62
2018-10-18T19:16:59.247Z,4.10
2018-10-18T19:19:28.561Z,4.43
2018-10-18T19:21:58.103Z,2.22
2018-10-18T19:24:27.413Z,8.83
2018-10-18T19:26:57.149Z,4.30
2018-10-18T19:29:26.712Z,6.00
2018-10-18T19:31:56.047Z,2.00
2018-10-18T19:34:25.823Z,2.43
2018-10-18T19:36:55.810Z,4.63
2018-10-18T19:39:25.351Z,3.13
2018-10-18T19:41:54.918Z,9.08
2018-10-18T19:44:24.224Z,5.97
2018-10-18T19:46:53.562Z,2.40
2018-10-18T19:49:22.866Z,2.58
2018-10-18T19:51:52.241Z,2.27
2018-10-18T19:54:21.541Z,3.50
2018-10-18T19:56:51.028Z,2.50
2018-10-18T19:59:20.116Z,4.90
2018-10-18T20:01:49.944Z,2.37
2018-10-18T20:04:19.280Z,5.80
2018-10-18T20:06:48.840Z,1.77
2018-10-18T20:09:18.411Z,3.08
2018-10-18T20:11:47.989Z,2.80
2018-10-18T20:14:17.581Z,2.17
2018-10-18T20:16:47.076Z,2.87
2018-10-18T20:19:16.678Z,1.83
2018-10-18T20:21:46.005Z,1.47
2018-10-18T20:24:15.557Z,3.37
2018-10-18T20:26:44.917Z,2.62
2018-10-18T20:29:14.783Z,2.67
2018-10-18T20:31:44.128Z,2.77
2018-10-18T20:34:13.444Z,2.40
2018-10-18T20:36:42.556Z,1.87
2018-10-18T20:39:11.992Z,2.15
2018-10-18T20:41:41.289Z,2.53
2018-10-18T20:44:10.848Z,4.10
2018-10-18T20:46:40.603Z,8.80
2018-10-18T20:49:09.861Z,6.50
2018-10-18T20:51:39.396Z,1.77
2018-10-18T20:54:09.038Z,1.93
2018-10-18T20:56:38.739Z,2.80
2018-10-18T20:59:08.083Z,3.50
2018-10-18T21:01:37.628Z,3.73
2018-10-18T21:04:06.932Z,2.53
2018-10-18T21:06:36.428Z,4.20
2018-10-18T21:09:08.365Z,3.53
2018-10-18T21:11:38.220Z,2.87
2018-10-18T21:14:07.732Z,4.00
2018-10-18T21:16:37.052Z,1.97
2018-10-18T21:19:06.615Z,2.77
2018-10-18T21:21:35.918Z,1.80
2018-10-18T21:24:05.431Z,3.53
2018-10-18T21:26:35.073Z,2.40
2018-10-18T21:29:04.822Z,1.45
2018-10-18T21:31:34.323Z,3.23
2018-10-18T21:34:03.480Z,1.97
2018-10-18T21:36:32.643Z,4.50
2018-10-18T21:39:02.094Z,2.23
2018-10-18T21:41:31.874Z,2.77
2018-10-18T21:44:00.980Z,1.50
2018-10-18T21:46:30.071Z,3.83
2018-10-18T21:48:59.230Z,4.10
2018-10-18T21:51:29.316Z,1.53
2018-10-18T21:53:58.909Z,1.40
2018-10-18T21:56:28.222Z,2.00
2018-10-18T21:58:57.613Z,1.70
2018-10-18T22:01:27.352Z,2.13
2018-10-18T22:03:56.887Z,2.87
2018-10-18T22:06:26.188Z,1.77
2018-10-18T22:08:55.574Z,1.85
2018-10-18T22:11:25.283Z,1.20
2018-10-18T22:13:54.603Z,3.00
2018-10-18T22:16:23.942Z,1.60
2018-10-18T22:18:53.266Z,2.55
2018-10-18T22:21:22.361Z,1.80
2018-10-18T22:23:51.708Z,1.73
2018-10-18T22:26:21.028Z,2.67
2018-10-18T22:28:50.551Z,2.87
2018-10-18T22:31:19.887Z,1.57
2018-10-18T22:33:49.239Z,2.33
2018-10-18T22:36:18.784Z,3.70
2018-10-18T22:38:48.115Z,1.63
2018-10-18T22:41:17.455Z,1.30
2018-10-18T22:43:46.993Z,4.97
2018-10-18T22:46:16.810Z,1.57
2018-10-18T22:48:46.697Z,2.17
2018-10-18T22:51:16.043Z,1.70
2018-10-18T22:53:45.587Z,2.60
2018-10-18T22:56:15.134Z,2.90
2018-10-18T22:58:44.484Z,3.33
2018-10-18T23:01:14.044Z,1.30
2018-10-18T23:03:43.584Z,1.57
2018-10-18T23:06:12.896Z,1.83
2018-10-18T23:08:42.241Z,1.90
2018-10-18T23:11:11.628Z,1.77
2018-10-18T23:13:41.354Z,2.30
2018-10-18T23:16:10.948Z,2.20
2018-10-18T23:18:40.515Z,1.43
2018-10-18T23:21:09.888Z,1.70
2018-10-18T23:23:39.151Z,2.60
2018-10-18T23:26:08.441Z,1.95
2018-10-18T23:28:37.934Z,2.00
2018-10-18T23:31:07.285Z,1.67
2018-10-18T23:33:37.144Z,1.73
2018-10-18T23:36:06.473Z,2.80
2018-10-18T23:38:36.033Z,1.50
2018-10-18T23:41:05.684Z,1.93
2018-10-18T23:43:34.979Z,2.63
2018-10-18T23:46:04.314Z,1.98
2018-10-18T23:48:34.060Z,2.37
2018-10-18T23:51:03.415Z,3.97
2018-10-18T23:53:32.976Z,2.60
2018-10-18T23:56:02.525Z,1.30
2018-10-18T23:58:33.068Z,1.50
